sensor_id;sensor_type;location;lat;lon;timestamp;P1;durP1;ratioP1;P2;durP2;ratioP2
60038;SDS011;45916;52.734;6.544;2023-07-13T00:01:47;10.23;;;3.72;;
60038;SDS011;45916;52.734;6.544;2023-07-13T00:04:20;9.98;;;4.03;;
60038;SDS011;45916;52.734;6.544;2023-07-13T00:06:48;10.10;;;4.75;;
60038;SDS011;45916;52.734;6.544;2023-07-13T00:09:15;13.93;;;4.22;;
60038;SDS011;45916;52.734;6.544;2023-07-13T00:11:43;9.15;;;4.10;;
60038;SDS011;45916;52.734;6.544;2023-07-13T00:14:10;7.88;;;3.88;;
60038;SDS011;45916;52.734;6.544;2023-07-13T00:16:36;11.43;;;3.90;;
60038;SDS011;45916;52.734;6.544;2023-07-13T00:19:05;9.93;;;3.92;;
60038;SDS011;45916;52.734;6.544;2023-07-13T00:21:31;8.32;;;3.70;;
60038;SDS011;45916;52.734;6.544;2023-07-13T00:23:57;13.02;;;4.78;;
60038;SDS011;45916;52.734;6.544;2023-07-13T00:26:23;10.50;;;4.10;;
60038;SDS011;45916;52.734;6.544;2023-07-13T00:28:49;10.13;;;4.20;;
60038;SDS011;45916;52.734;6.544;2023-07-13T00:31:15;12.57;;;4.38;;
60038;SDS011;45916;52.734;6.544;2023-07-13T00:33:41;14.13;;;3.80;;
60038;SDS011;45916;52.734;6.544;2023-07-13T00:36:07;9.95;;;3.63;;
60038;SDS011;45916;52.734;6.544;2023-07-13T00:38:34;8.90;;;3.53;;
60038;SDS011;45916;52.734;6.544;2023-07-13T00:40:59;9.98;;;4.32;;
60038;SDS011;45916;52.734;6.544;2023-07-13T00:43:26;10.68;;;4.28;;
60038;SDS011;45916;52.734;6.544;2023-07-13T00:48:20;7.88;;;3.83;;
60038;SDS011;45916;52.734;6.544;2023-07-13T00:50:48;12.80;;;4.05;;
60038;SDS011;45916;52.734;6.544;2023-07-13T00:53:17;8.52;;;3.78;;
60038;SDS011;45916;52.734;6.544;2023-07-13T00:55:44;12.18;;;4.65;;
60038;SDS011;45916;52.734;6.544;2023-07-13T00:58:11;10.93;;;3.90;;
60038;SDS011;45916;52.734;6.544;2023-07-13T01:00:37;11.45;;;4.68;;
60038;SDS011;45916;52.734;6.544;2023-07-13T01:03:04;10.38;;;3.72;;
60038;SDS011;45916;52.734;6.544;2023-07-13T01:05:32;9.45;;;4.35;;
60038;SDS011;45916;52.734;6.544;2023-07-13T01:07:59;13.43;;;4.45;;
60038;SDS011;45916;52.734;6.544;2023-07-13T01:10:25;10.43;;;3.83;;
60038;SDS011;45916;52.734;6.544;2023-07-13T01:12:52;11.60;;;5.32;;
60038;SDS011;45916;52.734;6.544;2023-07-13T01:15:38;9.55;;;3.33;;
60038;SDS011;45916;52.734;6.544;2023-07-13T01:18:18;10.40;;;4.13;;
60038;SDS011;45916;52.734;6.544;2023-07-13T01:20:59;11.20;;;4.68;;
60038;SDS011;45916;52.734;6.544;2023-07-13T01:23:26;11.35;;;3.65;;
60038;SDS011;45916;52.734;6.544;2023-07-13T01:25:53;11.70;;;4.05;;
60038;SDS011;45916;52.734;6.544;2023-07-13T01:28:20;11.32;;;4.03;;
60038;SDS011;45916;52.734;6.544;2023-07-13T01:30:47;13.02;;;4.03;;
60038;SDS011;45916;52.734;6.544;2023-07-13T01:33:14;13.02;;;4.53;;
60038;SDS011;45916;52.734;6.544;2023-07-13T01:35:42;11.68;;;4.28;;
60038;SDS011;45916;52.734;6.544;2023-07-13T01:38:09;10.23;;;3.90;;
60038;SDS011;45916;52.734;6.544;2023-07-13T01:40:37;9.53;;;4.27;;
60038;SDS011;45916;52.734;6.544;2023-07-13T01:43:03;10.07;;;4.15;;
60038;SDS011;45916;52.734;6.544;2023-07-13T01:45:29;11.13;;;3.65;;
60038;SDS011;45916;52.734;6.544;2023-07-13T01:47:54;11.98;;;3.85;;
60038;SDS011;45916;52.734;6.544;2023-07-13T01:50:21;10.02;;;4.10;;
60038;SDS011;45916;52.734;6.544;2023-07-13T01:52:46;10.27;;;4.32;;
60038;SDS011;45916;52.734;6.544;2023-07-13T01:55:12;9.73;;;4.00;;
60038;SDS011;45916;52.734;6.544;2023-07-13T01:57:38;10.32;;;4.18;;
60038;SDS011;45916;52.734;6.544;2023-07-13T02:00:05;9.85;;;3.80;;
60038;SDS011;45916;52.734;6.544;2023-07-13T02:02:31;13.33;;;4.30;;
60038;SDS011;45916;52.734;6.544;2023-07-13T02:04:57;12.63;;;4.00;;
60038;SDS011;45916;52.734;6.544;2023-07-13T02:07:23;12.07;;;4.60;;
60038;SDS011;45916;52.734;6.544;2023-07-13T02:09:49;11.30;;;4.43;;
60038;SDS011;45916;52.734;6.544;2023-07-13T02:12:14;12.00;;;4.50;;
60038;SDS011;45916;52.734;6.544;2023-07-13T02:14:40;11.48;;;4.03;;
60038;SDS011;45916;52.734;6.544;2023-07-13T02:17:06;11.45;;;4.35;;
60038;SDS011;45916;52.734;6.544;2023-07-13T02:19:31;9.13;;;3.75;;
60038;SDS011;45916;52.734;6.544;2023-07-13T02:21:57;14.32;;;4.97;;
60038;SDS011;45916;52.734;6.544;2023-07-13T02:24:23;12.43;;;4.65;;
60038;SDS011;45916;52.734;6.544;2023-07-13T02:26:49;11.65;;;4.13;;
60038;SDS011;45916;52.734;6.544;2023-07-13T02:29:15;15.00;;;4.53;;
60038;SDS011;45916;52.734;6.544;2023-07-13T02:31:40;11.93;;;4.30;;
60038;SDS011;45916;52.734;6.544;2023-07-13T02:34:06;13.60;;;5.32;;
60038;SDS011;45916;52.734;6.544;2023-07-13T02:36:32;13.43;;;4.65;;
60038;SDS011;45916;52.734;6.544;2023-07-13T02:39:00;10.70;;;4.10;;
60038;SDS011;45916;52.734;6.544;2023-07-13T02:41:27;13.23;;;4.80;;
60038;SDS011;45916;52.734;6.544;2023-07-13T02:43:53;11.27;;;4.60;;
60038;SDS011;45916;52.734;6.544;2023-07-13T02:46:28;9.70;;;4.38;;
60038;SDS011;45916;52.734;6.544;2023-07-13T02:48:54;12.77;;;4.68;;
60038;SDS011;45916;52.734;6.544;2023-07-13T02:51:20;12.75;;;4.78;;
60038;SDS011;45916;52.734;6.544;2023-07-13T02:53:45;11.35;;;4.60;;
60038;SDS011;45916;52.734;6.544;2023-07-13T02:56:11;12.57;;;4.57;;
60038;SDS011;45916;52.734;6.544;2023-07-13T02:58:37;14.88;;;5.72;;
60038;SDS011;45916;52.734;6.544;2023-07-13T03:01:10;12.20;;;4.57;;
60038;SDS011;45916;52.734;6.544;2023-07-13T03:03:37;8.80;;;3.95;;
60038;SDS011;45916;52.734;6.544;2023-07-13T03:06:03;11.95;;;5.10;;
60038;SDS011;45916;52.734;6.544;2023-07-13T03:08:32;12.23;;;5.05;;
60038;SDS011;45916;52.734;6.544;2023-07-13T03:11:01;12.20;;;4.72;;
60038;SDS011;45916;52.734;6.544;2023-07-13T03:13:28;11.95;;;4.43;;
60038;SDS011;45916;52.734;6.544;2023-07-13T03:15:54;12.10;;;4.97;;
60038;SDS011;45916;52.734;6.544;2023-07-13T03:18:20;13.55;;;4.95;;
60038;SDS011;45916;52.734;6.544;2023-07-13T03:20:46;11.65;;;5.05;;
60038;SDS011;45916;52.734;6.544;2023-07-13T03:23:15;9.98;;;4.85;;
60038;SDS011;45916;52.734;6.544;2023-07-13T03:25:41;11.73;;;4.95;;
60038;SDS011;45916;52.734;6.544;2023-07-13T03:28:06;12.52;;;4.72;;
60038;SDS011;45916;52.734;6.544;2023-07-13T03:30:32;10.73;;;4.95;;
60038;SDS011;45916;52.734;6.544;2023-07-13T03:32:58;16.83;;;4.88;;
60038;SDS011;45916;52.734;6.544;2023-07-13T03:35:23;12.77;;;4.85;;
60038;SDS011;45916;52.734;6.544;2023-07-13T03:37:49;10.32;;;4.78;;
60038;SDS011;45916;52.734;6.544;2023-07-13T03:40:16;17.88;;;5.35;;
60038;SDS011;45916;52.734;6.544;2023-07-13T03:42:42;13.90;;;5.25;;
60038;SDS011;45916;52.734;6.544;2023-07-13T03:45:08;11.68;;;5.55;;
60038;SDS011;45916;52.734;6.544;2023-07-13T03:47:34;12.70;;;5.60;;
60038;SDS011;45916;52.734;6.544;2023-07-13T03:49:59;15.32;;;5.50;;
60038;SDS011;45916;52.734;6.544;2023-07-13T03:52:25;15.35;;;6.00;;
60038;SDS011;45916;52.734;6.544;2023-07-13T03:54:51;12.43;;;5.78;;
60038;SDS011;45916;52.734;6.544;2023-07-13T03:57:18;14.52;;;5.70;;
60038;SDS011;45916;52.734;6.544;2023-07-13T03:59:44;12.32;;;5.78;;
60038;SDS011;45916;52.734;6.544;2023-07-13T04:02:09;13.23;;;4.93;;
60038;SDS011;45916;52.734;6.544;2023-07-13T04:04:35;11.13;;;5.75;;
60038;SDS011;45916;52.734;6.544;2023-07-13T04:07:00;10.60;;;5.35;;
60038;SDS011;45916;52.734;6.544;2023-07-13T04:09:26;12.25;;;5.80;;
60038;SDS011;45916;52.734;6.544;2023-07-13T04:11:52;15.35;;;4.97;;
60038;SDS011;45916;52.734;6.544;2023-07-13T04:14:18;14.93;;;5.18;;
60038;SDS011;45916;52.734;6.544;2023-07-13T04:16:43;11.57;;;5.10;;
60038;SDS011;45916;52.734;6.544;2023-07-13T04:19:09;13.68;;;5.25;;
60038;SDS011;45916;52.734;6.544;2023-07-13T04:21:35;11.93;;;6.10;;
60038;SDS011;45916;52.734;6.544;2023-07-13T04:24:02;12.68;;;6.35;;
60038;SDS011;45916;52.734;6.544;2023-07-13T04:26:31;10.90;;;5.18;;
60038;SDS011;45916;52.734;6.544;2023-07-13T04:29:01;12.38;;;5.15;;
60038;SDS011;45916;52.734;6.544;2023-07-13T04:31:29;13.57;;;5.05;;
60038;SDS011;45916;52.734;6.544;2023-07-13T04:33:55;11.25;;;5.03;;
60038;SDS011;45916;52.734;6.544;2023-07-13T04:36:21;12.32;;;4.78;;
60038;SDS011;45916;52.734;6.544;2023-07-13T04:38:46;14.77;;;5.43;;
60038;SDS011;45916;52.734;6.544;2023-07-13T04:41:13;13.68;;;5.25;;
60038;SDS011;45916;52.734;6.544;2023-07-13T04:43:39;12.63;;;5.22;;
60038;SDS011;45916;52.734;6.544;2023-07-13T04:46:06;12.88;;;5.13;;
60038;SDS011;45916;52.734;6.544;2023-07-13T04:48:33;12.55;;;4.90;;
60038;SDS011;45916;52.734;6.544;2023-07-13T04:50:59;11.35;;;5.20;;
60038;SDS011;45916;52.734;6.544;2023-07-13T04:53:25;14.52;;;5.30;;
60038;SDS011;45916;52.734;6.544;2023-07-13T04:55:51;13.90;;;5.32;;
60038;SDS011;45916;52.734;6.544;2023-07-13T04:58:17;14.00;;;5.35;;
60038;SDS011;45916;52.734;6.544;2023-07-13T05:00:43;13.02;;;5.30;;
60038;SDS011;45916;52.734;6.544;2023-07-13T05:03:09;11.07;;;4.85;;
60038;SDS011;45916;52.734;6.544;2023-07-13T05:05:35;10.55;;;5.13;;
60038;SDS011;45916;52.734;6.544;2023-07-13T05:08:00;11.75;;;4.63;;
60038;SDS011;45916;52.734;6.544;2023-07-13T05:10:27;10.85;;;4.75;;
60038;SDS011;45916;52.734;6.544;2023-07-13T05:12:52;11.77;;;4.75;;
60038;SDS011;45916;52.734;6.544;2023-07-13T05:15:20;15.18;;;4.90;;
60038;SDS011;45916;52.734;6.544;2023-07-13T05:17:47;8.98;;;4.05;;
60038;SDS011;45916;52.734;6.544;2023-07-13T05:20:14;9.38;;;4.22;;
60038;SDS011;45916;52.734;6.544;2023-07-13T05:22:40;9.85;;;3.97;;
60038;SDS011;45916;52.734;6.544;2023-07-13T05:25:07;8.68;;;3.65;;
60038;SDS011;45916;52.734;6.544;2023-07-13T05:27:34;9.88;;;3.97;;
60038;SDS011;45916;52.734;6.544;2023-07-13T05:30:00;14.38;;;4.30;;
60038;SDS011;45916;52.734;6.544;2023-07-13T05:32:27;8.73;;;3.33;;
60038;SDS011;45916;52.734;6.544;2023-07-13T05:34:52;11.15;;;3.78;;
60038;SDS011;45916;52.734;6.544;2023-07-13T05:37:18;11.65;;;4.40;;
60038;SDS011;45916;52.734;6.544;2023-07-13T05:39:44;11.25;;;3.85;;
60038;SDS011;45916;52.734;6.544;2023-07-13T05:42:09;9.05;;;3.08;;
60038;SDS011;45916;52.734;6.544;2023-07-13T05:44:35;9.38;;;3.58;;
60038;SDS011;45916;52.734;6.544;2023-07-13T05:47:01;8.40;;;3.20;;
60038;SDS011;45916;52.734;6.544;2023-07-13T05:49:26;10.25;;;3.70;;
60038;SDS011;45916;52.734;6.544;2023-07-13T05:51:52;11.88;;;3.30;;
60038;SDS011;45916;52.734;6.544;2023-07-13T05:54:18;9.07;;;3.33;;
60038;SDS011;45916;52.734;6.544;2023-07-13T05:56:43;9.82;;;3.20;;
60038;SDS011;45916;52.734;6.544;2023-07-13T05:59:09;8.48;;;3.22;;
60038;SDS011;45916;52.734;6.544;2023-07-13T06:01:35;9.10;;;2.92;;
60038;SDS011;45916;52.734;6.544;2023-07-13T06:04:00;8.73;;;3.10;;
60038;SDS011;45916;52.734;6.544;2023-07-13T06:06:26;8.73;;;3.20;;
60038;SDS011;45916;52.734;6.544;2023-07-13T06:08:52;8.90;;;2.97;;
60038;SDS011;45916;52.734;6.544;2023-07-13T06:11:22;9.88;;;3.45;;
60038;SDS011;45916;52.734;6.544;2023-07-13T06:13:49;9.13;;;2.90;;
60038;SDS011;45916;52.734;6.544;2023-07-13T06:16:16;8.50;;;3.07;;
60038;SDS011;45916;52.734;6.544;2023-07-13T06:18:42;6.45;;;2.58;;
60038;SDS011;45916;52.734;6.544;2023-07-13T06:21:09;7.30;;;3.17;;
60038;SDS011;45916;52.734;6.544;2023-07-13T06:23:36;9.68;;;2.30;;
60038;SDS011;45916;52.734;6.544;2023-07-13T06:26:04;7.00;;;2.83;;
60038;SDS011;45916;52.734;6.544;2023-07-13T06:28:31;8.23;;;3.13;;
60038;SDS011;45916;52.734;6.544;2023-07-13T06:30:57;10.25;;;2.78;;
60038;SDS011;45916;52.734;6.544;2023-07-13T06:33:24;7.77;;;2.80;;
60038;SDS011;45916;52.734;6.544;2023-07-13T06:35:50;9.02;;;2.47;;
60038;SDS011;45916;52.734;6.544;2023-07-13T06:38:15;7.35;;;2.83;;
60038;SDS011;45916;52.734;6.544;2023-07-13T06:40:41;7.40;;;2.67;;
60038;SDS011;45916;52.734;6.544;2023-07-13T06:43:07;7.85;;;3.28;;
60038;SDS011;45916;52.734;6.544;2023-07-13T06:45:40;7.18;;;2.55;;
60038;SDS011;45916;52.734;6.544;2023-07-13T06:48:07;9.00;;;3.08;;
60038;SDS011;45916;52.734;6.544;2023-07-13T06:50:33;7.90;;;3.20;;
60038;SDS011;45916;52.734;6.544;2023-07-13T06:52:58;9.32;;;3.03;;
60038;SDS011;45916;52.734;6.544;2023-07-13T06:55:25;7.63;;;2.30;;
60038;SDS011;45916;52.734;6.544;2023-07-13T06:57:50;9.23;;;3.15;;
60038;SDS011;45916;52.734;6.544;2023-07-13T07:00:16;6.85;;;2.83;;
60038;SDS011;45916;52.734;6.544;2023-07-13T07:02:42;7.43;;;2.90;;
60038;SDS011;45916;52.734;6.544;2023-07-13T07:05:09;9.13;;;2.88;;
60038;SDS011;45916;52.734;6.544;2023-07-13T07:07:34;7.45;;;3.00;;
60038;SDS011;45916;52.734;6.544;2023-07-13T07:10:00;10.57;;;3.67;;
60038;SDS011;45916;52.734;6.544;2023-07-13T07:12:28;6.68;;;2.67;;
60038;SDS011;45916;52.734;6.544;2023-07-13T07:14:54;9.05;;;3.25;;
60038;SDS011;45916;52.734;6.544;2023-07-13T07:17:19;8.07;;;3.35;;
60038;SDS011;45916;52.734;6.544;2023-07-13T07:19:45;8.98;;;4.00;;
60038;SDS011;45916;52.734;6.544;2023-07-13T07:22:11;8.82;;;3.55;;
60038;SDS011;45916;52.734;6.544;2023-07-13T07:24:37;9.35;;;3.25;;
60038;SDS011;45916;52.734;6.544;2023-07-13T07:27:02;10.43;;;3.47;;
60038;SDS011;45916;52.734;6.544;2023-07-13T07:29:28;9.20;;;3.05;;
60038;SDS011;45916;52.734;6.544;2023-07-13T07:31:54;9.43;;;3.38;;
60038;SDS011;45916;52.734;6.544;2023-07-13T07:34:20;10.20;;;3.47;;
60038;SDS011;45916;52.734;6.544;2023-07-13T07:36:45;9.48;;;3.72;;
60038;SDS011;45916;52.734;6.544;2023-07-13T07:39:11;8.75;;;4.05;;
60038;SDS011;45916;52.734;6.544;2023-07-13T07:41:37;11.00;;;3.83;;
60038;SDS011;45916;52.734;6.544;2023-07-13T07:44:03;9.45;;;3.97;;
60038;SDS011;45916;52.734;6.544;2023-07-13T07:46:29;11.07;;;4.30;;
60038;SDS011;45916;52.734;6.544;2023-07-13T07:48:55;14.52;;;5.20;;
60038;SDS011;45916;52.734;6.544;2023-07-13T07:51:21;9.43;;;3.70;;
60038;SDS011;45916;52.734;6.544;2023-07-13T07:53:47;11.10;;;4.22;;
60038;SDS011;45916;52.734;6.544;2023-07-13T07:56:13;12.13;;;4.15;;
60038;SDS011;45916;52.734;6.544;2023-07-13T07:58:41;9.65;;;4.90;;
60038;SDS011;45916;52.734;6.544;2023-07-13T08:01:07;11.65;;;3.90;;
60038;SDS011;45916;52.734;6.544;2023-07-13T08:03:33;10.13;;;4.60;;
60038;SDS011;45916;52.734;6.544;2023-07-13T08:05:59;11.82;;;4.82;;
60038;SDS011;45916;52.734;6.544;2023-07-13T08:08:26;11.75;;;4.32;;
60038;SDS011;45916;52.734;6.544;2023-07-13T08:10:52;13.55;;;5.22;;
60038;SDS011;45916;52.734;6.544;2023-07-13T08:13:18;11.82;;;4.68;;
60038;SDS011;45916;52.734;6.544;2023-07-13T08:15:44;12.00;;;4.57;;
60038;SDS011;45916;52.734;6.544;2023-07-13T08:18:11;11.90;;;5.18;;
60038;SDS011;45916;52.734;6.544;2023-07-13T08:20:39;12.35;;;4.50;;
60038;SDS011;45916;52.734;6.544;2023-07-13T08:23:06;10.18;;;4.57;;
60038;SDS011;45916;52.734;6.544;2023-07-13T08:25:34;10.63;;;5.07;;
60038;SDS011;45916;52.734;6.544;2023-07-13T08:28:00;10.73;;;4.60;;
60038;SDS011;45916;52.734;6.544;2023-07-13T08:30:27;11.10;;;4.22;;
60038;SDS011;45916;52.734;6.544;2023-07-13T08:32:53;9.98;;;5.18;;
60038;SDS011;45916;52.734;6.544;2023-07-13T08:35:19;8.85;;;4.63;;
60038;SDS011;45916;52.734;6.544;2023-07-13T08:37:44;9.32;;;5.30;;
60038;SDS011;45916;52.734;6.544;2023-07-13T08:40:10;12.50;;;5.57;;
60038;SDS011;45916;52.734;6.544;2023-07-13T08:45:24;11.57;;;5.47;;
60038;SDS011;45916;52.734;6.544;2023-07-13T08:47:54;10.35;;;5.70;;
60038;SDS011;45916;52.734;6.544;2023-07-13T08:50:47;13.65;;;5.65;;
60038;SDS011;45916;52.734;6.544;2023-07-13T08:53:23;11.25;;;5.45;;
60038;SDS011;45916;52.734;6.544;2023-07-13T08:56:20;14.10;;;5.90;;
60038;SDS011;45916;52.734;6.544;2023-07-13T08:58:50;19.00;;;7.05;;
60038;SDS011;45916;52.734;6.544;2023-07-13T09:01:24;11.60;;;6.00;;
60038;SDS011;45916;52.734;6.544;2023-07-13T09:04:04;12.85;;;7.00;;
60038;SDS011;45916;52.734;6.544;2023-07-13T09:12:11;10.13;;;3.92;;
60038;SDS011;45916;52.734;6.544;2023-07-13T09:14:58;6.55;;;3.67;;
60038;SDS011;45916;52.734;6.544;2023-07-13T09:17:30;7.65;;;2.80;;
60038;SDS011;45916;52.734;6.544;2023-07-13T09:20:02;7.18;;;3.13;;
60038;SDS011;45916;52.734;6.544;2023-07-13T09:22:32;6.40;;;2.40;;
60038;SDS011;45916;52.734;6.544;2023-07-13T09:25:23;5.28;;;2.28;;
60038;SDS011;45916;52.734;6.544;2023-07-13T09:28:10;4.88;;;2.20;;
60038;SDS011;45916;52.734;6.544;2023-07-13T09:30:49;5.28;;;2.60;;
60038;SDS011;45916;52.734;6.544;2023-07-13T09:35:58;7.30;;;2.55;;
60038;SDS011;45916;52.734;6.544;2023-07-13T09:38:24;7.13;;;2.92;;
60038;SDS011;45916;52.734;6.544;2023-07-13T09:43:28;6.05;;;2.95;;
60038;SDS011;45916;52.734;6.544;2023-07-13T09:45:54;5.45;;;2.40;;
60038;SDS011;45916;52.734;6.544;2023-07-13T09:48:20;5.15;;;3.03;;
60038;SDS011;45916;52.734;6.544;2023-07-13T09:50:47;5.97;;;2.85;;
60038;SDS011;45916;52.734;6.544;2023-07-13T09:55:40;6.00;;;2.90;;
60038;SDS011;45916;52.734;6.544;2023-07-13T09:58:14;7.32;;;3.30;;
60038;SDS011;45916;52.734;6.544;2023-07-13T10:01:03;7.38;;;3.20;;
60038;SDS011;45916;52.734;6.544;2023-07-13T10:03:33;5.53;;;3.28;;
60038;SDS011;45916;52.734;6.544;2023-07-13T10:06:12;6.40;;;3.20;;
60038;SDS011;45916;52.734;6.544;2023-07-13T10:08:39;8.63;;;4.10;;
60038;SDS011;45916;52.734;6.544;2023-07-13T10:11:39;4.90;;;2.78;;
60038;SDS011;45916;52.734;6.544;2023-07-13T10:14:00;6.68;;;3.55;;
60038;SDS011;45916;52.734;6.544;2023-07-13T10:16:33;6.65;;;3.42;;
60038;SDS011;45916;52.734;6.544;2023-07-13T10:19:00;8.48;;;3.92;;
60038;SDS011;45916;52.734;6.544;2023-07-13T10:21:39;6.82;;;3.80;;
60038;SDS011;45916;52.734;6.544;2023-07-13T10:24:32;7.32;;;3.05;;
60038;SDS011;45916;52.734;6.544;2023-07-13T10:29:35;10.82;;;4.70;;
60038;SDS011;45916;52.734;6.544;2023-07-13T10:32:07;9.55;;;4.97;;
60038;SDS011;45916;52.734;6.544;2023-07-13T10:34:36;6.20;;;4.35;;
60038;SDS011;45916;52.734;6.544;2023-07-13T10:37:02;9.05;;;5.18;;
60038;SDS011;45916;52.734;6.544;2023-07-13T10:39:30;8.57;;;4.78;;
60038;SDS011;45916;52.734;6.544;2023-07-13T10:42:03;8.73;;;5.85;;
60038;SDS011;45916;52.734;6.544;2023-07-13T10:44:34;14.48;;;5.43;;
60038;SDS011;45916;52.734;6.544;2023-07-13T10:47:05;12.88;;;5.95;;
60038;SDS011;45916;52.734;6.544;2023-07-13T10:49:43;7.78;;;5.70;;
60038;SDS011;45916;52.734;6.544;2023-07-13T10:55:29;10.18;;;6.03;;
60038;SDS011;45916;52.734;6.544;2023-07-13T11:03:38;8.82;;;5.30;;
60038;SDS011;45916;52.734;6.544;2023-07-13T11:08:55;10.50;;;4.55;;
60038;SDS011;45916;52.734;6.544;2023-07-13T11:14:03;6.30;;;3.67;;
60038;SDS011;45916;52.734;6.544;2023-07-13T11:16:48;5.90;;;2.90;;
60038;SDS011;45916;52.734;6.544;2023-07-13T11:27:49;4.78;;;2.40;;
60038;SDS011;45916;52.734;6.544;2023-07-13T11:30:25;5.25;;;2.47;;
60038;SDS011;45916;52.734;6.544;2023-07-13T11:35:38;6.32;;;3.35;;
60038;SDS011;45916;52.734;6.544;2023-07-13T11:38:31;7.53;;;3.25;;
60038;SDS011;45916;52.734;6.544;2023-07-13T11:41:19;6.40;;;3.70;;
60038;SDS011;45916;52.734;6.544;2023-07-13T11:43:45;7.28;;;3.67;;
60038;SDS011;45916;52.734;6.544;2023-07-13T11:48:50;7.97;;;3.88;;
60038;SDS011;45916;52.734;6.544;2023-07-13T11:51:27;7.97;;;4.82;;
60038;SDS011;45916;52.734;6.544;2023-07-13T11:54:00;13.57;;;4.95;;
60038;SDS011;45916;52.734;6.544;2023-07-13T11:56:47;8.02;;;4.60;;
60038;SDS011;45916;52.734;6.544;2023-07-13T11:59:14;10.25;;;4.63;;
60038;SDS011;45916;52.734;6.544;2023-07-13T12:01:45;9.18;;;4.63;;
60038;SDS011;45916;52.734;6.544;2023-07-13T12:04:27;10.88;;;4.72;;
60038;SDS011;45916;52.734;6.544;2023-07-13T12:07:06;8.45;;;4.38;;
60038;SDS011;45916;52.734;6.544;2023-07-13T12:09:39;6.70;;;4.63;;
60038;SDS011;45916;52.734;6.544;2023-07-13T12:12:10;8.50;;;5.47;;
60038;SDS011;45916;52.734;6.544;2023-07-13T12:14:37;7.80;;;4.38;;
60038;SDS011;45916;52.734;6.544;2023-07-13T12:17:08;6.65;;;4.32;;
60038;SDS011;45916;52.734;6.544;2023-07-13T12:19:43;8.65;;;4.53;;
60038;SDS011;45916;52.734;6.544;2023-07-13T12:22:09;6.30;;;4.47;;
60038;SDS011;45916;52.734;6.544;2023-07-13T12:24:38;7.28;;;4.63;;
60038;SDS011;45916;52.734;6.544;2023-07-13T12:27:21;9.63;;;4.78;;
60038;SDS011;45916;52.734;6.544;2023-07-13T12:29:50;6.70;;;3.42;;
60038;SDS011;45916;52.734;6.544;2023-07-13T12:32:18;8.70;;;3.60;;
60038;SDS011;45916;52.734;6.544;2023-07-13T12:34:51;6.82;;;2.55;;
60038;SDS011;45916;52.734;6.544;2023-07-13T12:37:21;10.30;;;3.30;;
60038;SDS011;45916;52.734;6.544;2023-07-13T12:39:48;19.83;;;4.27;;
60038;SDS011;45916;52.734;6.544;2023-07-13T12:42:28;11.63;;;3.38;;
60038;SDS011;45916;52.734;6.544;2023-07-13T12:44:57;8.65;;;2.88;;
60038;SDS011;45916;52.734;6.544;2023-07-13T12:47:43;7.72;;;2.60;;
60038;SDS011;45916;52.734;6.544;2023-07-13T12:50:22;6.15;;;3.03;;
60038;SDS011;45916;52.734;6.544;2023-07-13T12:52:54;6.70;;;2.55;;
60038;SDS011;45916;52.734;6.544;2023-07-13T12:55:41;5.72;;;2.30;;
60038;SDS011;45916;52.734;6.544;2023-07-13T12:58:10;5.43;;;2.05;;
60038;SDS011;45916;52.734;6.544;2023-07-13T13:00:47;5.68;;;2.63;;
60038;SDS011;45916;52.734;6.544;2023-07-13T13:05:49;5.85;;;2.42;;
60038;SDS011;45916;52.734;6.544;2023-07-13T13:08:14;5.65;;;2.00;;
60038;SDS011;45916;52.734;6.544;2023-07-13T13:10:40;6.53;;;2.38;;
60038;SDS011;45916;52.734;6.544;2023-07-13T13:13:06;6.70;;;2.28;;
60038;SDS011;45916;52.734;6.544;2023-07-13T13:15:31;7.15;;;2.60;;
60038;SDS011;45916;52.734;6.544;2023-07-13T13:17:57;7.22;;;2.33;;
60038;SDS011;45916;52.734;6.544;2023-07-13T13:20:24;6.68;;;2.40;;
60038;SDS011;45916;52.734;6.544;2023-07-13T13:22:53;8.73;;;2.58;;
60038;SDS011;45916;52.734;6.544;2023-07-13T13:25:19;6.78;;;2.40;;
60038;SDS011;45916;52.734;6.544;2023-07-13T13:27:45;8.68;;;2.25;;
60038;SDS011;45916;52.734;6.544;2023-07-13T13:32:38;6.22;;;2.40;;
60038;SDS011;45916;52.734;6.544;2023-07-13T13:35:05;7.57;;;2.30;;
60038;SDS011;45916;52.734;6.544;2023-07-13T13:37:37;6.28;;;3.13;;
60038;SDS011;45916;52.734;6.544;2023-07-13T13:40:05;4.57;;;2.10;;
60038;SDS011;45916;52.734;6.544;2023-07-13T13:42:42;4.05;;;1.52;;
60038;SDS011;45916;52.734;6.544;2023-07-13T13:45:11;6.55;;;2.15;;
60038;SDS011;45916;52.734;6.544;2023-07-13T13:47:38;5.03;;;1.58;;
60038;SDS011;45916;52.734;6.544;2023-07-13T13:50:15;6.32;;;1.88;;
60038;SDS011;45916;52.734;6.544;2023-07-13T13:52:43;4.25;;;1.48;;
60038;SDS011;45916;52.734;6.544;2023-07-13T13:55:16;4.88;;;1.90;;
60038;SDS011;45916;52.734;6.544;2023-07-13T13:57:46;6.65;;;1.90;;
60038;SDS011;45916;52.734;6.544;2023-07-13T14:00:13;5.25;;;2.03;;
60038;SDS011;45916;52.734;6.544;2023-07-13T14:02:44;3.73;;;1.50;;
60038;SDS011;45916;52.734;6.544;2023-07-13T14:05:13;5.43;;;1.88;;
60038;SDS011;45916;52.734;6.544;2023-07-13T14:07:41;6.05;;;1.95;;
60038;SDS011;45916;52.734;6.544;2023-07-13T14:10:16;3.80;;;1.52;;
60038;SDS011;45916;52.734;6.544;2023-07-13T14:12:44;4.80;;;2.08;;
60038;SDS011;45916;52.734;6.544;2023-07-13T14:17:48;5.90;;;1.77;;
60038;SDS011;45916;52.734;6.544;2023-07-13T14:20:18;4.95;;;2.00;;
60038;SDS011;45916;52.734;6.544;2023-07-13T14:22:45;5.15;;;1.92;;
60038;SDS011;45916;52.734;6.544;2023-07-13T14:25:14;4.28;;;1.63;;
60038;SDS011;45916;52.734;6.544;2023-07-13T14:27:41;5.32;;;2.20;;
60038;SDS011;45916;52.734;6.544;2023-07-13T14:30:13;5.55;;;2.00;;
60038;SDS011;45916;52.734;6.544;2023-07-13T14:32:40;6.20;;;1.80;;
60038;SDS011;45916;52.734;6.544;2023-07-13T14:35:07;4.95;;;2.13;;
60038;SDS011;45916;52.734;6.544;2023-07-13T14:37:37;6.43;;;2.10;;
60038;SDS011;45916;52.734;6.544;2023-07-13T14:40:12;5.85;;;2.38;;
60038;SDS011;45916;52.734;6.544;2023-07-13T14:42:42;5.20;;;2.10;;
60038;SDS011;45916;52.734;6.544;2023-07-13T14:45:14;5.65;;;1.80;;
60038;SDS011;45916;52.734;6.544;2023-07-13T14:47:41;4.70;;;1.63;;
60038;SDS011;45916;52.734;6.544;2023-07-13T14:50:12;6.30;;;2.30;;
60038;SDS011;45916;52.734;6.544;2023-07-13T14:52:39;4.93;;;1.90;;
60038;SDS011;45916;52.734;6.544;2023-07-13T14:55:08;5.38;;;2.25;;
60038;SDS011;45916;52.734;6.544;2023-07-13T14:57:39;4.85;;;2.05;;
60038;SDS011;45916;52.734;6.544;2023-07-13T15:00:09;8.05;;;2.22;;
60038;SDS011;45916;52.734;6.544;2023-07-13T15:02:38;5.45;;;2.42;;
60038;SDS011;45916;52.734;6.544;2023-07-13T15:05:23;5.55;;;2.17;;
60038;SDS011;45916;52.734;6.544;2023-07-13T15:07:52;7.45;;;2.17;;
60038;SDS011;45916;52.734;6.544;2023-07-13T15:10:22;6.15;;;2.35;;
60038;SDS011;45916;52.734;6.544;2023-07-13T15:12:52;5.97;;;2.05;;
60038;SDS011;45916;52.734;6.544;2023-07-13T15:15:23;6.78;;;2.20;;
60038;SDS011;45916;52.734;6.544;2023-07-13T15:17:48;5.15;;;2.28;;
60038;SDS011;45916;52.734;6.544;2023-07-13T15:22:57;6.10;;;2.45;;
60038;SDS011;45916;52.734;6.544;2023-07-13T15:25:28;7.28;;;2.53;;
60038;SDS011;45916;52.734;6.544;2023-07-13T15:27:56;5.25;;;2.72;;
60038;SDS011;45916;52.734;6.544;2023-07-13T15:30:22;5.05;;;2.45;;
60038;SDS011;45916;52.734;6.544;2023-07-13T15:32:52;5.18;;;2.55;;
60038;SDS011;45916;52.734;6.544;2023-07-13T15:35:21;6.47;;;2.30;;
60038;SDS011;45916;52.734;6.544;2023-07-13T15:37:50;7.35;;;2.85;;
60038;SDS011;45916;52.734;6.544;2023-07-13T15:40:17;6.55;;;2.67;;
60038;SDS011;45916;52.734;6.544;2023-07-13T15:42:44;6.72;;;2.33;;
60038;SDS011;45916;52.734;6.544;2023-07-13T15:45:15;7.50;;;2.92;;
60038;SDS011;45916;52.734;6.544;2023-07-13T15:47:48;6.78;;;2.70;;
60038;SDS011;45916;52.734;6.544;2023-07-13T15:50:19;7.97;;;2.72;;